Time;durP1;ratioP1;P1;durP2;ratioP2;P2;SDS_P1;SDS_P2;PMS_P1;PMS_P2;Temp;Humidity;BMP_temperature;BMP_pressure;BME280_temperature;BME280_humidity;BME280_pressure;Samples;Min_cycle;Max_cycle;Signal;HPM_P1;HPM_P2
2022/03/25 00:00:50;;;;;;;34.70;29.07;;;10.90;52.30;;;;;;5082017;28;20817;-64
2022/03/25 00:03:17;;;;;;;40.00;29.90;;;10.90;52.70;;;;;;5081305;28;20448;-64
2022/03/25 00:05:44;;;;;;;32.73;28.20;;;10.80;52.80;;;;;;5080523;28;20556;-64
2022/03/25 00:08:11;;;;;;;37.90;29.60;;;10.80;52.80;;;;;;5081148;28;20463;-64
2022/03/25 00:10:39;;;;;;;38.00;29.23;;;10.70;53.00;;;;;;5081389;28;20991;-64
2022/03/25 00:13:06;;;;;;;34.77;27.90;;;10.70;53.20;;;;;;5081076;28;20447;-63
2022/03/25 00:15:32;;;;;;;38.03;29.90;;;10.70;53.20;;;;;;5081473;28;20432;-63
2022/03/25 00:17:59;;;;;;;34.10;27.77;;;10.60;53.20;;;;;;5080972;28;20452;-63
2022/03/25 00:20:26;;;;;;;35.57;27.77;;;10.60;53.40;;;;;;5081498;28;20444;-64
2022/03/25 00:22:53;;;;;;;37.80;30.50;;;10.50;53.50;;;;;;5081213;28;20452;-64
2022/03/25 00:25:20;;;;;;;36.33;28.47;;;10.50;53.70;;;;;;5081146;28;20444;-63
2022/03/25 00:27:48;;;;;;;32.63;26.43;;;10.50;53.80;;;;;;5084801;28;20459;-65
2022/03/25 00:30:15;;;;;;;33.03;25.93;;;10.40;53.90;;;;;;5085128;28;20441;-63
2022/03/25 00:32:42;;;;;;;36.20;27.60;;;10.40;53.90;;;;;;5082350;28;20854;-64
2022/03/25 00:35:10;;;;;;;38.30;28.13;;;10.40;54.00;;;;;;5082666;28;20444;-64
2022/03/25 00:37:37;;;;;;;34.53;26.37;;;10.30;54.00;;;;;;5080184;28;20491;-64
2022/03/25 00:40:05;;;;;;;33.30;26.53;;;10.30;54.20;;;;;;5079137;28;20444;-64
2022/03/25 00:42:32;;;;;;;31.90;26.90;;;10.30;54.30;;;;;;5079618;28;20453;-64
2022/03/25 00:45:01;;;;;;;36.70;28.80;;;10.30;54.40;;;;;;5079854;28;20440;-64
2022/03/25 00:47:28;;;;;;;31.83;27.40;;;10.20;54.40;;;;;;5079452;28;20456;-63
2022/03/25 00:49:55;;;;;;;45.13;28.90;;;10.20;54.50;;;;;;5079613;28;20436;-64
2022/03/25 00:52:21;;;;;;;34.40;26.17;;;10.10;54.50;;;;;;5079126;28;20480;-63
2022/03/25 00:54:50;;;;;;;33.67;24.87;;;10.10;54.70;;;;;;5078718;28;20444;-63
2022/03/25 00:57:17;;;;;;;33.93;25.50;;;10.10;55.00;;;;;;5079241;28;20456;-63
2022/03/25 00:59:43;;;;;;;36.40;27.07;;;10.00;55.10;;;;;;5079633;28;20444;-63
2022/03/25 01:02:12;;;;;;;31.50;25.90;;;10.00;55.20;;;;;;5078919;28;20460;-63
2022/03/25 01:04:39;;;;;;;39.03;25.73;;;10.00;55.50;;;;;;5078954;28;20457;-63
2022/03/25 01:07:06;;;;;;;35.30;26.23;;;9.90;56.30;;;;;;5078881;28;20457;-63
2022/03/25 01:09:33;;;;;;;32.57;26.07;;;9.90;56.40;;;;;;5078726;28;20445;-63
2022/03/25 01:12:00;;;;;;;37.43;27.03;;;9.90;56.50;;;;;;5078288;28;20484;-63
2022/03/25 01:14:27;;;;;;;31.60;24.07;;;9.80;56.50;;;;;;5079117;28;20461;-63
2022/03/25 01:16:53;;;;;;;34.93;26.93;;;9.80;56.70;;;;;;5077924;28;20440;-64
2022/03/25 01:19:22;;;;;;;32.60;25.50;;;9.80;56.80;;;;;;5078114;28;20463;-64
2022/03/25 01:21:49;;;;;;;30.30;25.17;;;9.80;56.90;;;;;;5082358;28;20852;-64
2022/03/25 01:24:16;;;;;;;30.23;24.93;;;9.70;56.90;;;;;;5082216;28;20443;-64
2022/03/25 01:26:43;;;;;;;30.70;25.00;;;9.70;57.10;;;;;;5077959;28;20506;-64
2022/03/25 01:29:10;;;;;;;30.37;24.37;;;9.60;57.40;;;;;;5077970;28;20456;-64
2022/03/25 01:31:37;;;;;;;31.60;25.40;;;9.60;57.40;;;;;;5078429;28;20578;-63
2022/03/25 01:34:04;;;;;;;33.40;26.80;;;9.60;57.50;;;;;;5078073;28;20480;-64
2022/03/25 01:36:32;;;;;;;34.83;26.00;;;9.60;57.40;;;;;;5077424;28;20476;-64
2022/03/25 01:38:59;;;;;;;35.20;27.03;;;9.50;57.50;;;;;;5078389;28;20452;-63
2022/03/25 01:41:27;;;;;;;33.30;24.10;;;9.50;57.50;;;;;;5077517;28;20475;-64
2022/03/25 01:43:56;;;;;;;34.87;26.07;;;9.50;57.70;;;;;;5078146;28;20433;-63
2022/03/25 01:46:24;;;;;;;33.97;26.07;;;9.40;57.70;;;;;;5077590;28;20869;-64
2022/03/25 01:48:52;;;;;;;31.33;24.10;;;9.40;58.00;;;;;;5078970;28;20453;-63
2022/03/25 01:51:22;;;;;;;35.30;25.37;;;9.40;58.10;;;;;;5079440;28;20484;-63
2022/03/25 01:53:50;;;;;;;37.77;26.77;;;9.30;58.00;;;;;;5078472;28;20827;-63
2022/03/25 01:56:21;;;;;;;31.23;24.23;;;9.30;58.10;;;;;;5077887;28;20459;-63
2022/03/25 01:58:48;;;;;;;31.43;24.03;;;9.30;58.10;;;;;;5077011;28;20425;-63
2022/03/25 02:01:16;;;;;;;34.43;24.50;;;9.30;58.10;;;;;;5077169;28;20471;-63
2022/03/25 02:03:44;;;;;;;31.73;25.40;;;9.20;58.20;;;;;;5077161;28;20490;-64
2022/03/25 02:06:11;;;;;;;31.03;24.40;;;9.20;58.40;;;;;;5077075;28;20484;-63
2022/03/25 02:08:38;;;;;;;34.90;24.77;;;9.20;58.40;;;;;;5077370;28;20449;-63
2022/03/25 02:11:09;;;;;;;29.57;23.47;;;9.20;58.40;;;;;;5076870;28;20981;-63
2022/03/25 02:13:36;;;;;;;33.07;23.80;;;9.10;58.50;;;;;;5077132;28;20437;-64
2022/03/25 02:16:03;;;;;;;31.30;24.97;;;9.10;58.50;;;;;;5077914;28;20464;-64
2022/03/25 02:18:30;;;;;;;29.33;24.27;;;9.10;58.90;;;;;;5076508;28;20947;-63
2022/03/25 02:20:56;;;;;;;30.03;25.33;;;9.00;58.90;;;;;;5077087;28;20468;-63
2022/03/25 02:23:25;;;;;;;29.43;23.60;;;9.00;59.00;;;;;;5077362;28;20433;-64
2022/03/25 02:25:54;;;;;;;33.53;25.47;;;9.00;59.00;;;;;;5076267;28;20978;-64
2022/03/25 02:28:21;;;;;;;31.63;22.87;;;9.00;59.10;;;;;;5076501;28;20451;-64
2022/03/25 02:30:48;;;;;;;29.67;23.80;;;9.00;59.20;;;;;;5077200;28;20885;-64
2022/03/25 02:33:15;;;;;;;28.90;23.03;;;8.90;59.20;;;;;;5078257;28;20491;-63
2022/03/25 02:35:43;;;;;;;33.07;23.43;;;8.90;59.30;;;;;;5078085;28;20455;-63
2022/03/25 02:38:11;;;;;;;32.00;24.83;;;8.90;59.40;;;;;;5077663;28;20459;-63
2022/03/25 02:40:40;;;;;;;31.50;23.37;;;8.80;59.40;;;;;;5077616;28;20468;-63
2022/03/25 02:43:08;;;;;;;28.40;23.37;;;8.80;59.40;;;;;;5077360;28;20451;-63
2022/03/25 02:45:35;;;;;;;31.03;24.53;;;8.70;59.60;;;;;;5077362;28;20459;-64
2022/03/25 02:48:06;;;;;;;30.77;23.70;;;8.70;59.90;;;;;;5077077;28;20451;-64
2022/03/25 02:50:33;;;;;;;30.70;23.87;;;8.70;59.90;;;;;;5073831;28;20445;-64
2022/03/25 02:53:00;;;;;;;32.13;23.00;;;8.70;60.20;;;;;;5072842;28;20492;-62
2022/03/25 02:55:27;;;;;;;30.30;23.13;;;8.70;60.50;;;;;;5073622;28;20536;-62
2022/03/25 02:57:56;;;;;;;31.87;22.57;;;8.70;60.50;;;;;;5073710;28;20457;-62
2022/03/25 03:00:26;;;;;;;33.53;23.20;;;8.70;60.60;;;;;;5073519;28;20501;-63
2022/03/25 03:02:53;;;;;;;38.30;25.93;;;8.60;60.40;;;;;;5072921;28;20453;-63
2022/03/25 03:05:21;;;;;;;31.60;25.23;;;8.60;60.70;;;;;;5073354;28;20810;-63
2022/03/25 03:07:48;;;;;;;32.47;25.07;;;8.60;60.80;;;;;;5073398;28;20445;-63
2022/03/25 03:10:15;;;;;;;34.43;23.17;;;8.50;60.80;;;;;;5073471;28;20454;-62
2022/03/25 03:12:42;;;;;;;26.20;22.00;;;8.50;60.90;;;;;;5073213;28;20484;-63
2022/03/25 03:15:12;;;;;;;27.73;21.40;;;8.50;61.10;;;;;;5074240;28;20506;-63
2022/03/25 03:17:39;;;;;;;28.80;22.30;;;8.40;61.10;;;;;;5073773;28;20790;-63
2022/03/25 03:20:07;;;;;;;30.43;21.70;;;8.40;61.30;;;;;;5073082;28;20457;-63
2022/03/25 03:22:33;;;;;;;31.50;22.40;;;8.30;61.50;;;;;;5074526;28;20467;-63
2022/03/25 03:25:00;;;;;;;33.67;22.70;;;8.30;61.60;;;;;;5074012;28;20970;-62
2022/03/25 03:27:27;;;;;;;33.50;24.60;;;8.30;61.50;;;;;;5075526;28;20456;-63
2022/03/25 03:29:54;;;;;;;33.87;24.40;;;8.30;61.60;;;;;;5077808;28;20455;-64
2022/03/25 03:32:22;;;;;;;30.90;23.80;;;8.30;61.70;;;;;;5077715;28;20838;-64
2022/03/25 03:34:49;;;;;;;36.83;23.37;;;8.20;62.00;;;;;;5077654;28;20452;-63
2022/03/25 03:37:15;;;;;;;32.47;22.83;;;8.20;62.00;;;;;;5078052;28;20447;-64
2022/03/25 03:39:42;;;;;;;28.87;22.07;;;8.20;62.30;;;;;;5078147;28;20452;-63
2022/03/25 03:42:09;;;;;;;31.47;23.40;;;8.10;62.40;;;;;;5077252;28;20465;-64
2022/03/25 03:44:38;;;;;;;27.57;21.90;;;8.10;62.50;;;;;;5077246;28;20445;-64
2022/03/25 03:47:06;;;;;;;33.83;24.50;;;8.10;62.60;;;;;;5077456;28;20460;-64
2022/03/25 03:49:34;;;;;;;32.67;22.37;;;8.10;62.90;;;;;;5077096;28;20448;-64
2022/03/25 03:52:01;;;;;;;31.47;21.87;;;8.10;62.80;;;;;;5077118;28;20491;-64
2022/03/25 03:54:28;;;;;;;29.07;21.57;;;8.00;62.70;;;;;;5077784;28;20440;-63
2022/03/25 03:56:55;;;;;;;29.50;23.00;;;8.00;62.80;;;;;;5077140;28;20865;-63
2022/03/25 03:59:22;;;;;;;28.60;21.37;;;8.00;63.00;;;;;;5076947;28;20452;-63
2022/03/25 04:01:49;;;;;;;30.00;22.20;;;8.00;63.00;;;;;;5077688;28;20472;-63
2022/03/25 04:04:16;;;;;;;29.13;22.80;;;7.90;63.00;;;;;;5077591;28;20489;-63
2022/03/25 04:06:44;;;;;;;29.30;22.57;;;7.90;63.50;;;;;;5080412;28;20506;-63
2022/03/25 04:09:11;;;;;;;32.60;23.60;;;7.80;63.90;;;;;;5080679;28;20445;-63
2022/03/25 04:11:38;;;;;;;28.77;22.07;;;7.80;63.90;;;;;;5080520;28;20465;-63
2022/03/25 04:14:05;;;;;;;32.17;23.97;;;7.80;63.90;;;;;;5080778;28;20445;-63
2022/03/25 04:16:31;;;;;;;32.80;23.30;;;7.80;64.10;;;;;;5081323;28;20452;-63
2022/03/25 04:18:59;;;;;;;30.00;23.10;;;7.80;64.30;;;;;;5088973;28;20459;-63
2022/03/25 04:21:26;;;;;;;39.50;24.90;;;7.80;64.40;;;;;;5083057;28;20464;-63
2022/03/25 04:23:54;;;;;;;32.97;23.97;;;7.70;64.40;;;;;;5080273;28;20502;-63
2022/03/25 04:26:21;;;;;;;29.13;22.33;;;7.70;64.50;;;;;;5080190;28;20452;-63
2022/03/25 04:28:48;;;;;;;33.83;21.80;;;7.70;64.90;;;;;;5076228;28;20449;-63
2022/03/25 04:31:15;;;;;;;32.00;21.87;;;7.60;65.00;;;;;;5075809;28;20496;-63
2022/03/25 04:33:41;;;;;;;30.13;22.73;;;7.60;64.90;;;;;;5076068;28;20485;-63
2022/03/25 04:36:09;;;;;;;29.80;22.40;;;7.60;65.20;;;;;;5076333;28;20448;-63
2022/03/25 04:38:35;;;;;;;30.43;21.80;;;7.60;65.60;;;;;;5076354;28;20506;-63
2022/03/25 04:41:03;;;;;;;30.43;22.80;;;7.50;65.60;;;;;;5076054;28;20477;-63
2022/03/25 04:43:30;;;;;;;32.60;23.33;;;7.50;65.70;;;;;;5076124;28;20458;-63
2022/03/25 04:45:57;;;;;;;41.30;24.30;;;7.50;66.10;;;;;;5075933;28;20475;-63
2022/03/25 04:48:24;;;;;;;35.77;22.90;;;7.40;66.00;;;;;;5076107;28;20939;-63
2022/03/25 04:50:50;;;;;;;28.30;21.23;;;7.40;66.20;;;;;;5076278;28;20467;-63
2022/03/25 04:53:17;;;;;;;30.83;22.37;;;7.40;66.30;;;;;;5075600;28;20484;-63
2022/03/25 04:55:44;;;;;;;27.47;22.03;;;7.40;66.30;;;;;;5075924;28;20449;-63
2022/03/25 04:58:12;;;;;;;32.43;23.33;;;7.40;66.30;;;;;;5075251;28;20968;-62
2022/03/25 05:00:39;;;;;;;29.73;21.77;;;7.40;66.40;;;;;;5075773;28;20496;-63
2022/03/25 05:03:06;;;;;;;35.13;22.83;;;7.30;66.10;;;;;;5075577;28;20445;-63
2022/03/25 05:05:33;;;;;;;34.27;21.80;;;7.30;66.20;;;;;;5075219;28;20963;-63
2022/03/25 05:08:01;;;;;;;32.17;21.53;;;7.30;66.50;;;;;;5075622;28;20499;-63
2022/03/25 05:10:28;;;;;;;28.63;21.70;;;7.20;66.50;;;;;;5074910;28;20940;-64
2022/03/25 05:12:55;;;;;;;30.87;22.03;;;7.20;66.80;;;;;;5075444;28;20472;-63
2022/03/25 05:15:23;;;;;;;31.30;21.00;;;7.20;67.00;;;;;;5074792;28;20444;-63
2022/03/25 05:17:51;;;;;;;27.60;21.60;;;7.20;67.00;;;;;;5075136;28;20441;-64
2022/03/25 05:20:19;;;;;;;31.70;22.70;;;7.10;67.10;;;;;;5075333;28;20456;-63
2022/03/25 05:22:46;;;;;;;32.30;21.80;;;7.10;67.20;;;;;;5075512;28;20507;-63
2022/03/25 05:25:13;;;;;;;31.77;22.53;;;7.00;67.30;;;;;;5076923;28;20453;-63
2022/03/25 05:27:44;;;;;;;29.60;22.90;;;7.00;67.40;;;;;;5081241;28;20448;-64
2022/03/25 05:30:12;;;;;;;30.00;22.50;;;7.10;67.80;;;;;;5081048;28;20433;-64
2022/03/25 05:32:41;;;;;;;26.63;21.03;;;7.00;67.70;;;;;;5080884;28;20456;-63
2022/03/25 05:35:09;;;;;;;31.77;22.87;;;7.00;67.90;;;;;;5080203;28;20510;-63
2022/03/25 05:37:37;;;;;;;33.00;23.83;;;7.00;68.00;;;;;;5080526;28;20445;-64
2022/03/25 05:40:04;;;;;;;31.03;22.30;;;6.90;68.00;;;;;;5081065;28;20459;-64
2022/03/25 05:42:32;;;;;;;29.17;21.43;;;6.90;68.30;;;;;;5081555;28;20488;-64
2022/03/25 05:44:58;;;;;;;34.93;23.87;;;6.90;68.60;;;;;;5080654;28;20469;-64
2022/03/25 05:47:25;;;;;;;32.57;23.60;;;6.90;68.70;;;;;;5080560;28;20452;-63
2022/03/25 05:49:53;;;;;;;33.30;24.27;;;6.90;69.00;;;;;;5079866;28;20463;-63
2022/03/25 05:52:20;;;;;;;38.20;25.20;;;6.90;69.20;;;;;;5078647;28;20464;-63
2022/03/25 05:54:47;;;;;;;35.30;24.50;;;7.00;69.30;;;;;;5079128;28;20449;-64
2022/03/25 05:57:14;;;;;;;36.27;23.90;;;7.00;69.30;;;;;;5078218;28;20523;-64
2022/03/25 05:59:40;;;;;;;31.00;23.43;;;7.00;69.20;;;;;;5078159;28;20973;-64
2022/03/25 06:02:08;;;;;;;31.57;23.87;;;7.00;69.40;;;;;;5077792;28;21023;-65
2022/03/25 06:04:35;;;;;;;35.03;25.07;;;7.00;69.90;;;;;;5078285;28;20797;-64
2022/03/25 06:07:03;;;;;;;36.57;25.87;;;7.00;70.10;;;;;;5077602;28;20441;-65
2022/03/25 06:09:30;;;;;;;37.33;25.87;;;7.00;70.50;;;;;;5077917;28;20449;-64
2022/03/25 06:11:57;;;;;;;34.20;25.53;;;7.00;70.50;;;;;;5078043;28;20460;-64
2022/03/25 06:14:25;;;;;;;35.47;24.87;;;7.10;70.70;;;;;;5077799;28;20449;-65
2022/03/25 06:16:51;;;;;;;41.87;28.80;;;7.10;71.10;;;;;;5077471;28;20514;-65
2022/03/25 06:19:18;;;;;;;40.73;28.17;;;7.10;71.40;;;;;;5077326;28;20509;-65
2022/03/25 06:21:45;;;;;;;39.77;25.90;;;7.20;71.80;;;;;;5077241;28;20461;-64
2022/03/25 06:24:13;;;;;;;36.77;27.60;;;7.20;71.60;;;;;;5077571;28;20472;-64
2022/03/25 06:26:40;;;;;;;39.23;27.60;;;7.20;71.70;;;;;;5077324;28;20456;-64
2022/03/25 06:29:08;;;;;;;38.47;27.77;;;7.30;72.20;;;;;;5086493;28;20452;-64
2022/03/25 06:31:34;;;;;;;46.60;28.97;;;7.30;72.70;;;;;;5087084;28;20475;-64
2022/03/25 06:34:03;;;;;;;41.23;28.03;;;7.40;73.10;;;;;;5081419;28;20452;-64
2022/03/25 06:36:30;;;;;;;45.03;31.30;;;7.40;73.00;;;;;;5078109;28;20448;-65
2022/03/25 06:38:57;;;;;;;43.23;28.53;;;7.40;73.20;;;;;;5078413;28;20453;-65
2022/03/25 06:41:25;;;;;;;43.03;29.57;;;7.50;73.40;;;;;;5077734;28;20473;-65
2022/03/25 06:43:52;;;;;;;45.87;30.07;;;7.50;73.70;;;;;;5078496;28;21010;-64
2022/03/25 06:46:18;;;;;;;47.67;32.30;;;7.50;74.10;;;;;;5077884;28;20433;-65
2022/03/25 06:48:45;;;;;;;47.17;34.00;;;7.60;74.60;;;;;;5077824;28;20459;-65
2022/03/25 06:51:13;;;;;;;44.87;31.40;;;7.60;75.40;;;;;;5077461;28;20468;-65
2022/03/25 06:53:40;;;;;;;47.77;33.73;;;7.60;76.30;;;;;;5080007;28;20456;-65
2022/03/25 06:56:08;;;;;;;53.03;33.87;;;7.70;76.10;;;;;;5097142;28;20430;-65
2022/03/25 06:58:37;;;;;;;58.03;32.03;;;7.80;76.10;;;;;;5097646;28;20429;-64
2022/03/25 07:01:05;;;;;;;53.97;37.03;;;7.80;76.80;;;;;;5089684;28;20492;-64
2022/03/25 07:03:33;;;;;;;55.70;34.40;;;7.90;77.30;;;;;;5081744;28;20488;-64
2022/03/25 07:06:00;;;;;;;53.50;37.30;;;7.90;77.70;;;;;;5079465;28;20459;-64
2022/03/25 07:08:29;;;;;;;61.03;37.53;;;8.00;78.30;;;;;;5078241;28;20445;-64
2022/03/25 07:10:59;;;;;;;58.40;39.20;;;8.10;78.30;;;;;;5076746;28;20496;-65
2022/03/25 07:13:26;;;;;;;55.47;36.63;;;8.20;78.00;;;;;;5076627;28;20437;-65
2022/03/25 07:15:54;;;;;;;62.33;40.87;;;8.30;78.40;;;;;;5076161;28;20912;-65
2022/03/25 07:18:21;;;;;;;71.87;43.70;;;8.50;77.90;;;;;;5075592;28;20831;-65
2022/03/25 07:20:48;;;;;;;68.97;44.43;;;8.60;79.80;;;;;;5075865;28;20475;-64
2022/03/25 07:23:14;;;;;;;77.97;43.47;;;8.70;79.80;;;;;;5075430;28;20472;-64
2022/03/25 07:25:41;;;;;;;69.57;47.33;;;8.70;80.20;;;;;;5076560;28;20444;-64
2022/03/25 07:28:08;;;;;;;72.00;45.07;;;8.90;80.80;;;;;;5076230;28;20433;-65
2022/03/25 07:30:37;;;;;;;77.63;47.27;;;8.90;81.10;;;;;;5075647;28;20445;-64
2022/03/25 07:33:05;;;;;;;70.10;46.73;;;9.00;81.70;;;;;;5075384;28;20844;-65
2022/03/25 07:35:32;;;;;;;68.97;46.80;;;9.10;82.10;;;;;;5075501;28;20439;-64
2022/03/25 07:37:59;;;;;;;69.13;46.63;;;9.20;82.40;;;;;;5075553;28;20794;-64
2022/03/25 07:40:25;;;;;;;67.03;43.60;;;9.30;81.80;;;;;;5078123;28;20494;-64
2022/03/25 07:42:52;;;;;;;64.63;46.87;;;9.50;81.30;;;;;;5080026;28;20452;-64
2022/03/25 07:45:19;;;;;;;71.87;46.03;;;9.60;80.70;;;;;;5079809;28;20540;-64
2022/03/25 07:47:48;;;;;;;68.40;44.50;;;9.70;79.30;;;;;;5080071;28;20490;-64
2022/03/25 07:50:19;;;;;;;70.50;47.80;;;9.90;77.50;;;;;;5079734;28;20441;-65
2022/03/25 07:52:47;;;;;;;74.20;48.07;;;10.00;76.30;;;;;;5079914;28;20433;-65
2022/03/25 07:55:17;;;;;;;71.83;47.67;;;10.10;76.40;;;;;;5079536;28;20432;-65
2022/03/25 07:57:44;;;;;;;70.93;48.23;;;10.30;75.80;;;;;;5079245;28;20494;-65
2022/03/25 08:00:13;;;;;;;67.50;47.57;;;10.40;74.80;;;;;;5078772;28;20456;-64
2022/03/25 08:02:40;;;;;;;71.23;49.70;;;10.50;73.10;;;;;;5079735;28;20571;-64
2022/03/25 08:05:10;;;;;;;63.43;46.20;;;10.60;72.50;;;;;;5080012;28;20488;-65
2022/03/25 08:07:48;;;;;;;65.37;49.00;;;10.80;72.40;;;;;;5080489;28;20448;-64
2022/03/25 08:10:17;;;;;;;75.70;52.07;;;10.90;71.90;;;;;;5080485;28;20553;-65
2022/03/25 08:12:44;;;;;;;72.77;50.77;;;11.10;70.90;;;;;;5080666;28;20455;-64
2022/03/25 08:15:11;;;;;;;69.97;49.50;;;11.20;71.50;;;;;;5080464;28;20441;-64
2022/03/25 08:17:52;;;;;;;67.77;51.17;;;11.30;71.40;;;;;;5079868;28;20455;-64
2022/03/25 08:20:25;;;;;;;71.70;48.87;;;11.40;71.40;;;;;;5081439;28;20436;-64
2022/03/25 08:22:54;;;;;;;64.73;46.90;;;11.50;70.50;;;;;;5081381;28;20467;-64
2022/03/25 08:28:14;;;;;;;63.97;45.67;;;11.80;69.90;;;;;;5056162;28;20478;-64
2022/03/25 08:30:42;;;;;;;59.07;44.73;;;11.90;70.50;;;;;;5080649;28;20554;-64
2022/03/25 08:33:10;;;;;;;63.50;47.30;;;12.00;68.90;;;;;;5081335;28;20482;-64
2022/03/25 08:35:38;;;;;;;75.67;46.50;;;12.10;68.20;;;;;;5080937;28;20469;-64
2022/03/25 08:38:07;;;;;;;66.77;48.07;;;12.20;67.30;;;;;;5081701;28;20448;-64
2022/03/25 08:40:34;;;;;;;68.23;48.90;;;12.40;67.90;;;;;;5081638;28;20455;-64
2022/03/25 08:43:02;;;;;;;61.93;44.47;;;12.50;67.30;;;;;;5084691;28;20459;-65
2022/03/25 08:45:29;;;;;;;67.40;47.70;;;12.60;66.50;;;;;;5087352;28;20428;-65
2022/03/25 08:47:56;;;;;;;61.53;46.90;;;12.80;66.80;;;;;;5086276;28;20440;-65
2022/03/25 08:50:23;;;;;;;66.20;46.93;;;12.90;64.50;;;;;;5084680;28;20440;-66
2022/03/25 08:52:51;;;;;;;59.10;46.23;;;13.00;64.70;;;;;;5082869;28;20448;-66
2022/03/25 08:55:21;;;;;;;55.50;40.17;;;13.10;64.50;;;;;;5082931;28;20444;-66
2022/03/25 08:57:49;;;;;;;58.80;40.50;;;13.30;63.70;;;;;;5082323;28;20437;-66
2022/03/25 09:00:17;;;;;;;64.97;40.67;;;13.50;62.10;;;;;;5082874;28;20443;-66
2022/03/25 09:02:46;;;;;;;62.33;47.07;;;13.70;60.60;;;;;;5083193;28;20429;-66
2022/03/25 09:05:13;;;;;;;64.37;46.23;;;13.90;63.20;;;;;;5081208;28;20484;-66
2022/03/25 09:07:41;;;;;;;55.33;44.17;;;14.10;61.70;;;;;;5081564;28;20460;-65
2022/03/25 09:10:10;;;;;;;57.13;43.70;;;14.20;61.60;;;;;;5081604;28;20460;-65
2022/03/25 09:12:38;;;;;;;61.67;46.23;;;14.40;61.70;;;;;;5082174;28;20475;-65
2022/03/25 09:15:07;;;;;;;61.97;46.37;;;14.60;59.00;;;;;;5081907;28;20441;-65
2022/03/25 09:17:34;;;;;;;60.63;45.83;;;14.80;58.80;;;;;;5081214;28;20506;-65
2022/03/25 09:20:03;;;;;;;53.27;43.63;;;14.90;58.20;;;;;;5080236;28;20456;-65
2022/03/25 09:22:30;;;;;;;56.40;43.13;;;15.00;57.90;;;;;;5079969;28;20999;-65
2022/03/25 09:24:57;;;;;;;61.50;44.70;;;15.30;58.20;;;;;;5079894;28;20480;-65
2022/03/25 09:27:23;;;;;;;60.43;43.87;;;15.60;57.60;;;;;;5079661;28;20460;-65
2022/03/25 09:29:52;;;;;;;52.13;42.83;;;15.90;56.20;;;;;;5079020;28;20456;-66
2022/03/25 09:32:18;;;;;;;52.17;43.47;;;16.10;55.90;;;;;;5078441;28;20476;-66
2022/03/25 09:37:29;;;;;;;51.67;41.60;;;16.70;54.60;;;;;;5079774;28;20451;-66
2022/03/25 09:39:56;;;;;;;49.30;39.20;;;17.00;53.50;;;;;;5079248;28;20460;-66
2022/03/25 09:42:24;;;;;;;47.70;36.67;;;17.30;52.50;;;;;;5078600;28;20844;-66
2022/03/25 09:44:53;;;;;;;41.97;36.20;;;17.60;51.10;;;;;;5079282;28;20468;-65
2022/03/25 09:47:21;;;;;;;42.63;34.30;;;17.90;50.00;;;;;;5078329;28;20975;-66
2022/03/25 09:49:48;;;;;;;44.60;36.37;;;18.30;49.30;;;;;;5079952;28;20445;-67
2022/03/25 09:52:18;;;;;;;48.83;37.17;;;18.60;48.30;;;;;;5080048;28;20873;-66
2022/03/25 09:54:45;;;;;;;40.63;35.10;;;18.90;47.50;;;;;;5078658;28;20459;-66
2022/03/25 09:57:11;;;;;;;44.70;37.00;;;19.30;47.20;;;;;;5079232;28;20429;-66
2022/03/25 09:59:38;;;;;;;42.40;34.80;;;19.60;45.40;;;;;;5079583;28;20441;-66
2022/03/25 10:02:06;;;;;;;40.97;33.60;;;19.80;43.80;;;;;;5078738;28;20479;-66
2022/03/25 10:04:40;;;;;;;37.83;31.53;;;20.00;43.10;;;;;;5078466;28;20490;-66
2022/03/25 10:07:18;;;;;;;39.27;33.50;;;20.40;42.20;;;;;;5079804;28;20463;-66
2022/03/25 10:09:45;;;;;;;43.77;34.83;;;20.70;41.90;;;;;;5080223;28;20429;-66
2022/03/25 10:12:23;;;;;;;39.60;33.57;;;20.90;41.50;;;;;;5079539;28;20477;-65
2022/03/25 10:14:52;;;;;;;39.00;34.80;;;21.30;41.30;;;;;;5078951;28;20425;-64
2022/03/25 10:17:20;;;;;;;38.60;32.30;;;21.60;40.50;;;;;;5079015;28;20455;-65
2022/03/25 10:19:48;;;;;;;41.47;32.70;;;22.00;39.70;;;;;;5079170;28;20476;-66
2022/03/25 10:22:16;;;;;;;41.23;32.50;;;22.30;39.10;;;;;;5079703;28;20504;-67
2022/03/25 10:24:45;;;;;;;36.47;31.97;;;22.70;38.40;;;;;;5078459;28;20468;-67
2022/03/25 10:27:13;;;;;;;37.67;30.70;;;23.00;37.20;;;;;;5077261;28;20440;-67
2022/03/25 10:29:40;;;;;;;40.77;34.47;;;23.40;36.80;;;;;;5077590;28;20448;-65
2022/03/25 10:32:08;;;;;;;42.77;33.20;;;23.80;35.50;;;;;;5077815;28;20475;-65
2022/03/25 10:34:38;;;;;;;50.83;36.50;;;24.00;34.00;;;;;;5077345;28;20451;-66
2022/03/25 10:37:07;;;;;;;42.53;33.50;;;24.30;34.40;;;;;;5078042;28;20457;-65
2022/03/25 10:39:35;;;;;;;35.33;28.27;;;24.70;34.50;;;;;;5078356;28;20425;-65
2022/03/25 10:42:03;;;;;;;30.97;27.87;;;25.10;32.90;;;;;;5078081;28;20479;-65
2022/03/25 10:44:43;;;;;;;32.77;29.10;;;25.50;30.40;;;;;;5079028;28;20481;-66
2022/03/25 10:47:24;;;;;;;33.20;29.50;;;26.10;30.00;;;;;;5078726;28;20483;-65
2022/03/25 10:49:54;;;;;;;36.90;31.87;;;26.50;29.60;;;;;;5079659;28;20463;-65
2022/03/25 10:52:25;;;;;;;36.20;31.77;;;27.00;29.20;;;;;;5096142;28;20550;-65
2022/03/25 10:55:13;;;;;;;42.07;30.57;;;27.40;27.90;;;;;;5094803;28;20432;-65
2022/03/25 10:57:54;;;;;;;33.90;30.40;;;27.90;28.00;;;;;;5079884;28;20433;-65
2022/03/25 11:00:21;;;;;;;31.43;28.13;;;28.40;26.70;;;;;;5078061;28;20429;-65
2022/03/25 11:02:49;;;;;;;30.93;25.27;;;28.60;26.10;;;;;;5078296;28;20456;-65
2022/03/25 11:05:18;;;;;;;29.00;22.40;;;28.70;26.00;;;;;;5076477;28;20514;-65
2022/03/25 11:07:46;;;;;;;26.70;23.63;;;28.50;24.50;;;;;;5077019;28;20437;-65
2022/03/25 11:10:14;;;;;;;31.87;23.70;;;28.20;25.30;;;;;;5075967;28;20807;-65
2022/03/25 11:12:46;;;;;;;24.77;22.17;;;28.10;26.00;;;;;;5077145;28;20461;-65
2022/03/25 11:15:13;;;;;;;21.90;19.10;;;28.50;25.60;;;;;;5078836;28;20444;-65
2022/03/25 11:17:43;;;;;;;24.70;16.27;;;28.90;24.50;;;;;;5079941;28;20514;-65
2022/03/25 11:20:11;;;;;;;22.63;18.80;;;29.00;24.10;;;;;;5079688;28;20841;-65
2022/03/25 11:22:44;;;;;;;18.23;15.40;;;29.40;24.70;;;;;;5080480;28;20511;-65
2022/03/25 11:25:14;;;;;;;20.93;16.17;;;30.00;23.60;;;;;;5080298;28;20475;-65
2022/03/25 11:27:48;;;;;;;18.13;14.53;;;30.70;23.20;;;;;;5079808;28;20440;-65
2022/03/25 11:30:16;;;;;;;20.80;13.40;;;31.40;22.00;;;;;;5079151;28;20807;-65
2022/03/25 11:33:06;;;;;;;19.80;13.80;;;32.00;21.10;;;;;;5078911;28;20438;-66
2022/03/25 11:35:35;;;;;;;16.67;14.40;;;32.70;21.10;;;;;;5079450;28;20512;-66
2022/03/25 11:38:18;;;;;;;16.50;14.80;;;33.20;19.80;;;;;;5079167;28;20440;-66
2022/03/25 11:40:45;;;;;;;21.83;15.73;;;33.70;19.30;;;;;;5079610;28;20563;-65
2022/03/25 11:43:15;;;;;;;22.10;16.70;;;34.00;18.60;;;;;;5079142;28;20443;-66
2022/03/25 11:45:43;;;;;;;17.53;13.87;;;34.30;19.00;;;;;;5079180;28;20871;-67
2022/03/25 11:48:39;;;;;;;12.43;9.70;;;34.70;18.10;;;;;;5078963;28;20451;-67
2022/03/25 11:51:28;;;;;;;12.70;8.70;;;35.00;17.80;;;;;;5079105;28;20472;-65
2022/03/25 11:53:56;;;;;;;13.97;12.50;;;35.50;17.40;;;;;;5078572;28;20493;-66
2022/03/25 11:56:24;;;;;;;16.43;11.83;;;35.90;16.80;;;;;;5078321;28;20201;-67
2022/03/25 11:59:02;;;;;;;22.70;13.30;;;36.30;16.20;;;;;;5078978;28;20210;-65
2022/03/25 12:01:31;;;;;;;16.47;12.73;;;36.40;16.20;;;;;;5079206;28;20225;-66
2022/03/25 12:03:59;;;;;;;16.10;14.27;;;36.60;15.70;;;;;;5080208;28;20622;-66
2022/03/25 12:06:27;;;;;;;17.60;15.03;;;36.30;15.70;;;;;;5079136;28;20204;-66
2022/03/25 12:09:01;;;;;;;15.37;13.87;;;35.40;15.80;;;;;;5079999;28;20213;-66
2022/03/25 12:11:51;;;;;;;14.47;13.07;;;34.30;16.70;;;;;;5079487;28;20279;-65
2022/03/25 12:14:19;;;;;;;19.40;14.00;;;34.10;18.00;;;;;;5075133;28;20780;-66
2022/03/25 12:17:00;;;;;;;20.80;15.73;;;34.30;17.90;;;;;;5079095;28;20432;-66
2022/03/25 12:19:51;;;;;;;17.30;15.57;;;34.80;17.50;;;;;;5079398;28;20534;-66
2022/03/25 12:22:33;;;;;;;16.90;14.20;;;35.30;16.60;;;;;;5079128;28;20978;-66
2022/03/25 12:25:10;;;;;;;18.53;16.57;;;35.70;16.50;;;;;;5078931;28;20436;-66
2022/03/25 12:27:38;;;;;;;20.07;16.93;;;35.80;16.10;;;;;;5080185;28;20192;-66
2022/03/25 12:30:05;;;;;;;18.00;16.30;;;35.90;16.60;;;;;;5080362;28;20185;-66
2022/03/25 12:32:35;;;;;;;18.27;16.37;;;36.20;16.40;;;;;;5080239;28;20316;-66
2022/03/25 12:35:05;;;;;;;22.30;17.30;;;36.40;16.40;;;;;;5079954;28;20217;-67
2022/03/25 12:37:38;;;;;;;25.02;17.52;;;36.70;15.80;;;;;;5080284;28;20240;-66
2022/03/25 12:40:14;;;;;;;20.52;16.27;;;37.10;15.40;;;;;;5079756;28;20212;-66
2022/03/25 12:42:42;;;;;;;17.13;15.43;;;37.60;15.20;;;;;;5081171;28;20240;-66
2022/03/25 12:45:09;;;;;;;16.85;14.30;;;37.80;14.70;;;;;;5080037;28;20198;-66